Time;durP1;ratioP1;P1;durP2;ratioP2;P2;SDS_P1;SDS_P2;PMS_P1;PMS_P2;Temp;Humidity;BMP_temperature;BMP_pressure;BME280_temperature;BME280_humidity;BME280_pressure;Samples;Min_cycle;Max_cycle;Signal;HPM_P1;HPM_P2
2022/03/05 00:00:16;;;;;;;30.30;20.73;;;;;;;;;;5064840;28;20064;-60
2022/03/05 00:02:41;;;;;;;32.80;22.98;;;;;;;;;;5030379;28;20044;-60
2022/03/05 00:05:07;;;;;;;33.47;21.07;;;;;;;;;;5050276;28;20041;-60
2022/03/05 00:07:32;;;;;;;35.38;20.48;;;;;;;;;;5050334;28;20451;-60
2022/03/05 00:09:57;;;;;;;34.15;21.38;;;;;;;;;;5044139;28;20013;-59
2022/03/05 00:12:22;;;;;;;34.83;22.57;;;;;;;;;;5050421;28;20037;-59
2022/03/05 00:14:47;;;;;;;41.03;25.02;;;;;;;;;;5032960;28;20439;-60
2022/03/05 00:17:12;;;;;;;30.73;22.15;;;;;;;;;;5029632;28;20034;-60
2022/03/05 00:19:38;;;;;;;31.50;18.97;;;;;;;;;;5043448;28;20021;-60
2022/03/05 00:22:03;;;;;;;41.42;23.38;;;;;;;;;;5050335;28;20106;-59
2022/03/05 00:24:28;;;;;;;32.83;21.63;;;;;;;;;;5035337;28;20489;-60
2022/03/05 00:26:53;;;;;;;32.50;21.05;;;;;;;;;;5044991;28;20404;-59
2022/03/05 00:29:18;;;;;;;32.70;21.85;;;;;;;;;;5051736;28;20106;-59
2022/03/05 00:31:44;;;;;;;35.63;20.87;;;;;;;;;;5047736;28;20134;-61
2022/03/05 00:34:09;;;;;;;32.83;21.10;;;;;;;;;;5038389;28;20448;-62
2022/03/05 00:36:35;;;;;;;31.45;19.75;;;;;;;;;;5030428;28;20045;-62
2022/03/05 00:39:00;;;;;;;35.78;22.65;;;;;;;;;;5031093;28;20397;-62
2022/03/05 00:41:26;;;;;;;33.60;21.07;;;;;;;;;;5030389;28;20014;-62
2022/03/05 00:43:51;;;;;;;32.17;21.00;;;;;;;;;;5040318;28;20454;-62
2022/03/05 00:46:16;;;;;;;33.75;22.38;;;;;;;;;;5029625;28;20949;-62
2022/03/05 00:48:41;;;;;;;40.63;25.17;;;;;;;;;;5031712;28;20025;-62
2022/03/05 00:51:06;;;;;;;30.23;20.00;;;;;;;;;;5031573;28;20033;-62
2022/03/05 00:53:32;;;;;;;39.97;22.05;;;;;;;;;;5036902;28;20476;-62
2022/03/05 00:55:57;;;;;;;36.90;19.57;;;;;;;;;;5051130;28;20048;-62
2022/03/05 00:58:22;;;;;;;76.38;41.75;;;;;;;;;;5048752;28;20456;-62
2022/03/05 01:00:48;;;;;;;39.58;25.02;;;;;;;;;;5031111;28;20078;-62
2022/03/05 01:03:13;;;;;;;61.72;30.70;;;;;;;;;;5033983;28;20068;-62
2022/03/05 01:05:38;;;;;;;48.03;25.98;;;;;;;;;;5048759;28;20025;-62
2022/03/05 01:08:03;;;;;;;34.70;24.97;;;;;;;;;;5030860;28;20045;-62
2022/03/05 01:10:28;;;;;;;63.72;31.35;;;;;;;;;;5049874;28;20443;-62
2022/03/05 01:12:54;;;;;;;44.37;23.77;;;;;;;;;;5047793;28;20083;-62
2022/03/05 01:15:19;;;;;;;43.43;22.70;;;;;;;;;;5041513;28;20040;-62
2022/03/05 01:17:44;;;;;;;46.03;25.88;;;;;;;;;;5049464;28;20439;-62
2022/03/05 01:20:09;;;;;;;45.50;26.03;;;;;;;;;;5050823;28;20013;-62
2022/03/05 01:22:35;;;;;;;37.38;22.08;;;;;;;;;;5029406;28;20467;-62
2022/03/05 01:25:00;;;;;;;43.83;22.88;;;;;;;;;;5046865;28;20475;-62
2022/03/05 01:27:25;;;;;;;35.97;23.13;;;;;;;;;;5029574;28;20064;-62
2022/03/05 01:29:50;;;;;;;65.50;33.37;;;;;;;;;;5030988;28;20392;-62
2022/03/05 01:32:15;;;;;;;43.97;26.20;;;;;;;;;;5037348;28;20499;-62
2022/03/05 01:34:40;;;;;;;62.50;29.57;;;;;;;;;;5034837;28;20448;-62
2022/03/05 01:37:06;;;;;;;45.10;24.55;;;;;;;;;;5029366;28;20912;-62
2022/03/05 01:39:31;;;;;;;44.00;23.73;;;;;;;;;;5030446;28;20021;-62
2022/03/05 01:41:56;;;;;;;45.67;26.83;;;;;;;;;;5029274;28;20087;-62
2022/03/05 01:44:22;;;;;;;34.27;23.57;;;;;;;;;;5031894;28;20021;-62
2022/03/05 01:46:47;;;;;;;44.58;26.98;;;;;;;;;;5029439;28;20465;-62
2022/03/05 01:49:13;;;;;;;40.28;23.05;;;;;;;;;;5030707;28;20018;-62
2022/03/05 01:51:38;;;;;;;38.95;23.80;;;;;;;;;;5025437;28;20053;-62
2022/03/05 01:54:04;;;;;;;39.58;25.33;;;;;;;;;;5035130;28;20029;-62
2022/03/05 01:56:29;;;;;;;38.78;23.58;;;;;;;;;;5041019;28;20475;-62
2022/03/05 01:58:54;;;;;;;39.95;24.02;;;;;;;;;;5050516;28;20539;-62
2022/03/05 02:01:21;;;;;;;45.70;26.13;;;;;;;;;;5033712;28;20028;-62
2022/03/05 02:03:46;;;;;;;41.75;24.90;;;;;;;;;;5045424;28;20020;-62
2022/03/05 02:06:11;;;;;;;37.25;23.13;;;;;;;;;;5049443;28;20100;-62
2022/03/05 02:08:36;;;;;;;36.40;24.70;;;;;;;;;;5050240;28;20475;-62
2022/03/05 02:11:02;;;;;;;49.50;24.30;;;;;;;;;;5050030;28;20464;-63
2022/03/05 02:13:27;;;;;;;37.70;23.20;;;;;;;;;;5037281;28;20464;-63
2022/03/05 02:15:53;;;;;;;36.72;23.90;;;;;;;;;;5030271;28;20010;-63
2022/03/05 02:18:18;;;;;;;36.50;23.38;;;;;;;;;;5028886;28;20060;-63
2022/03/05 02:20:43;;;;;;;43.95;23.55;;;;;;;;;;5030652;28;20543;-63
2022/03/05 02:23:08;;;;;;;40.00;21.07;;;;;;;;;;5039916;28;20136;-63
2022/03/05 02:25:33;;;;;;;37.10;25.08;;;;;;;;;;5047271;28;20423;-63
2022/03/05 02:27:59;;;;;;;33.30;19.98;;;;;;;;;;5052302;28;20127;-62
2022/03/05 02:30:24;;;;;;;37.53;23.63;;;;;;;;;;5053855;28;20534;-62
2022/03/05 02:32:49;;;;;;;36.50;22.38;;;;;;;;;;5046157;28;20493;-62
2022/03/05 02:35:14;;;;;;;36.13;22.30;;;;;;;;;;5034015;28;20022;-62
2022/03/05 02:37:39;;;;;;;36.38;21.00;;;;;;;;;;5043247;28;20052;-62
2022/03/05 02:40:05;;;;;;;41.25;21.17;;;;;;;;;;5053988;28;20032;-62
2022/03/05 02:42:30;;;;;;;47.10;23.92;;;;;;;;;;5048748;28;20033;-62
2022/03/05 02:44:55;;;;;;;31.40;21.50;;;;;;;;;;5035557;28;20029;-62
2022/03/05 02:47:20;;;;;;;31.50;20.05;;;;;;;;;;5032435;28;20030;-62
2022/03/05 02:49:45;;;;;;;26.73;17.35;;;;;;;;;;5045562;28;20029;-62
2022/03/05 02:52:11;;;;;;;41.00;23.05;;;;;;;;;;5050470;28;20117;-63
2022/03/05 02:54:36;;;;;;;42.90;22.87;;;;;;;;;;5043657;28;20119;-62
2022/03/05 02:57:01;;;;;;;35.67;21.80;;;;;;;;;;5052079;28;20470;-62
2022/03/05 02:59:27;;;;;;;39.63;21.42;;;;;;;;;;5053041;28;20053;-63
2022/03/05 03:01:52;;;;;;;37.15;21.90;;;;;;;;;;5040306;28;20038;-63
2022/03/05 03:04:17;;;;;;;35.53;24.17;;;;;;;;;;5050933;28;20481;-63
2022/03/05 03:06:42;;;;;;;40.17;21.58;;;;;;;;;;5051590;28;20045;-63
2022/03/05 03:09:07;;;;;;;36.33;21.65;;;;;;;;;;5052761;28;20025;-63
2022/03/05 03:11:33;;;;;;;37.15;21.58;;;;;;;;;;5039688;28;20463;-63
2022/03/05 03:13:58;;;;;;;41.15;23.55;;;;;;;;;;5047842;28;20028;-63
2022/03/05 03:16:23;;;;;;;39.63;21.15;;;;;;;;;;5051824;28;20402;-63
2022/03/05 03:18:48;;;;;;;39.03;21.23;;;;;;;;;;5053072;28;20024;-63
2022/03/05 03:21:14;;;;;;;38.80;22.30;;;;;;;;;;5051087;28;20764;-63
2022/03/05 03:23:39;;;;;;;31.40;19.43;;;;;;;;;;5049239;28;20037;-63
2022/03/05 03:26:05;;;;;;;35.65;20.95;;;;;;;;;;5053209;28;20049;-63
2022/03/05 03:28:30;;;;;;;35.93;21.40;;;;;;;;;;5051272;28;20067;-63
2022/03/05 03:30:55;;;;;;;39.70;22.98;;;;;;;;;;5049922;28;20456;-63
2022/03/05 03:33:21;;;;;;;38.63;22.23;;;;;;;;;;5038350;28;20072;-65
2022/03/05 03:35:46;;;;;;;35.20;19.97;;;;;;;;;;5032741;28;20440;-64
2022/03/05 03:38:11;;;;;;;39.33;23.55;;;;;;;;;;5045968;28;21003;-64
2022/03/05 03:40:36;;;;;;;31.35;21.52;;;;;;;;;;5052959;28;20020;-64
2022/03/05 03:43:01;;;;;;;44.20;24.30;;;;;;;;;;5040720;28;20033;-64
2022/03/05 03:45:27;;;;;;;34.83;20.67;;;;;;;;;;5032815;28;20427;-64
2022/03/05 03:47:52;;;;;;;36.25;23.75;;;;;;;;;;5043600;28;20061;-64
2022/03/05 03:50:18;;;;;;;41.33;23.75;;;;;;;;;;5032771;28;20100;-64
2022/03/05 03:52:43;;;;;;;35.92;22.08;;;;;;;;;;5045445;28;20041;-64
2022/03/05 03:55:10;;;;;;;39.00;21.70;;;;;;;;;;5052442;28;20434;-64
2022/03/05 03:57:36;;;;;;;34.85;21.17;;;;;;;;;;5050837;28;20459;-63
2022/03/05 04:00:01;;;;;;;51.50;24.67;;;;;;;;;;5051847;28;20103;-63
2022/03/05 04:02:26;;;;;;;35.50;21.65;;;;;;;;;;5046762;28;20053;-63
2022/03/05 04:04:51;;;;;;;34.90;20.98;;;;;;;;;;5033401;28;20021;-63
2022/03/05 04:10:02;;;;;;;34.95;21.73;;;;;;;;;;5037560;28;20036;-63
2022/03/05 04:12:27;;;;;;;40.78;21.65;;;;;;;;;;5046568;28;20056;-63
2022/03/05 04:14:54;;;;;;;34.78;20.85;;;;;;;;;;5031804;28;20018;-63
2022/03/05 04:17:19;;;;;;;36.55;21.80;;;;;;;;;;5030843;28;20018;-63
2022/03/05 04:19:44;;;;;;;33.17;20.48;;;;;;;;;;5032023;28;20014;-63
2022/03/05 04:22:10;;;;;;;41.20;22.00;;;;;;;;;;5030901;28;20148;-62
2022/03/05 04:24:35;;;;;;;40.47;23.08;;;;;;;;;;5032578;28;20476;-62
2022/03/05 04:27:00;;;;;;;39.47;22.15;;;;;;;;;;5046402;28;20017;-62
2022/03/05 04:29:25;;;;;;;49.83;24.58;;;;;;;;;;5043185;28;20037;-62
2022/03/05 04:31:50;;;;;;;43.90;23.38;;;;;;;;;;5030627;28;20044;-62
2022/03/05 04:34:16;;;;;;;37.30;25.85;;;;;;;;;;5049649;28;20025;-62
2022/03/05 04:36:41;;;;;;;35.92;21.73;;;;;;;;;;5049966;28;20044;-62
2022/03/05 04:39:06;;;;;;;42.55;22.65;;;;;;;;;;5051481;28;20017;-62
2022/03/05 04:41:31;;;;;;;34.53;21.90;;;;;;;;;;5050027;28;20098;-62
2022/03/05 04:43:57;;;;;;;31.60;20.33;;;;;;;;;;5034794;28;20520;-62
2022/03/05 04:46:22;;;;;;;36.28;22.63;;;;;;;;;;5042780;28;20086;-62
2022/03/05 04:48:47;;;;;;;36.83;20.27;;;;;;;;;;5051530;28;20032;-63
2022/03/05 04:51:12;;;;;;;33.90;19.70;;;;;;;;;;5049624;28;20488;-63
2022/03/05 04:53:37;;;;;;;43.10;22.88;;;;;;;;;;5049775;28;20029;-63
2022/03/05 04:56:02;;;;;;;34.55;20.20;;;;;;;;;;5050960;28;20021;-63
2022/03/05 04:58:28;;;;;;;39.88;19.70;;;;;;;;;;5047721;28;20492;-63
2022/03/05 05:00:53;;;;;;;36.53;21.27;;;;;;;;;;5051607;28;20029;-62
2022/03/05 05:03:18;;;;;;;38.42;20.58;;;;;;;;;;5039592;28;20037;-62
2022/03/05 05:05:43;;;;;;;37.03;20.95;;;;;;;;;;5031208;28;20029;-64
2022/03/05 05:08:08;;;;;;;45.23;22.37;;;;;;;;;;5030650;28;20069;-64
2022/03/05 05:10:33;;;;;;;37.42;20.25;;;;;;;;;;5031203;28;20021;-64
2022/03/05 05:12:59;;;;;;;41.45;23.25;;;;;;;;;;5036944;28;20033;-61
2022/03/05 05:15:24;;;;;;;42.85;23.25;;;;;;;;;;5032468;28;20036;-64
2022/03/05 05:17:49;;;;;;;44.50;21.95;;;;;;;;;;5029628;28;20033;-63
2022/03/05 05:20:14;;;;;;;42.13;20.92;;;;;;;;;;5030633;28;20543;-64
2022/03/05 05:22:40;;;;;;;40.03;21.48;;;;;;;;;;5037438;28;20068;-63
2022/03/05 05:25:05;;;;;;;46.85;23.58;;;;;;;;;;5031544;28;20087;-64
2022/03/05 05:27:34;;;;;;;33.10;19.83;;;;;;;;;;5029429;28;20037;-64
2022/03/05 05:29:59;;;;;;;32.65;19.83;;;;;;;;;;5044964;28;20009;-64
2022/03/05 05:32:24;;;;;;;39.53;21.15;;;;;;;;;;5032106;28;20111;-64
2022/03/05 05:34:49;;;;;;;36.55;21.73;;;;;;;;;;5050868;28;20036;-64
2022/03/05 05:37:15;;;;;;;37.50;21.70;;;;;;;;;;5042364;28;20036;-64
2022/03/05 05:39:40;;;;;;;38.20;21.35;;;;;;;;;;5030955;28;20037;-64
2022/03/05 05:42:05;;;;;;;42.37;24.67;;;;;;;;;;5030022;28;20029;-64
2022/03/05 05:44:30;;;;;;;40.78;23.20;;;;;;;;;;5049426;28;20443;-64
2022/03/05 05:46:56;;;;;;;37.75;22.23;;;;;;;;;;5048696;28;20403;-63
2022/03/05 05:49:21;;;;;;;46.42;22.50;;;;;;;;;;5049971;28;20438;-63
2022/03/05 05:51:46;;;;;;;45.92;21.30;;;;;;;;;;5048577;28;20045;-63
2022/03/05 05:54:11;;;;;;;49.20;24.05;;;;;;;;;;5049284;28;20017;-63
2022/03/05 05:56:36;;;;;;;53.70;25.03;;;;;;;;;;5050027;28;20045;-64
2022/03/05 05:59:03;;;;;;;43.77;23.53;;;;;;;;;;5052268;28;20029;-64
2022/03/05 06:01:28;;;;;;;50.70;27.55;;;;;;;;;;5051998;28;20009;-64
2022/03/05 06:03:53;;;;;;;48.42;23.73;;;;;;;;;;5053246;28;20020;-63
2022/03/05 06:06:19;;;;;;;51.20;25.88;;;;;;;;;;5052410;28;20013;-63
2022/03/05 06:08:44;;;;;;;48.13;23.63;;;;;;;;;;5054362;28;20074;-64
2022/03/05 06:11:10;;;;;;;41.38;26.48;;;;;;;;;;5052365;28;20047;-66
2022/03/05 06:13:35;;;;;;;39.63;22.23;;;;;;;;;;5046110;28;20067;-62
2022/03/05 06:16:00;;;;;;;44.05;24.52;;;;;;;;;;5052656;28;20483;-62
2022/03/05 06:18:26;;;;;;;37.97;24.73;;;;;;;;;;5052056;28;20473;-62
2022/03/05 06:20:51;;;;;;;47.97;23.50;;;;;;;;;;5052876;28;20471;-62
2022/03/05 06:23:18;;;;;;;49.60;21.87;;;;;;;;;;5050768;28;20048;-61
2022/03/05 06:25:43;;;;;;;44.90;24.40;;;;;;;;;;5051072;28;20529;-62
2022/03/05 06:28:09;;;;;;;45.95;22.42;;;;;;;;;;5050278;28;20129;-62
2022/03/05 06:30:34;;;;;;;46.93;21.47;;;;;;;;;;5053091;28;20496;-62
2022/03/05 06:32:59;;;;;;;48.80;24.97;;;;;;;;;;5052203;28;20052;-62
2022/03/05 06:35:24;;;;;;;44.33;22.90;;;;;;;;;;5052044;28;20443;-61
2022/03/05 06:37:50;;;;;;;46.15;23.88;;;;;;;;;;5052007;28;20044;-61
2022/03/05 06:40:15;;;;;;;53.55;26.58;;;;;;;;;;5053331;28;20068;-61
2022/03/05 06:42:41;;;;;;;42.00;24.25;;;;;;;;;;5050604;28;20040;-62
2022/03/05 06:45:08;;;;;;;44.40;28.05;;;;;;;;;;5052321;28;20021;-62
2022/03/05 06:47:33;;;;;;;48.90;25.33;;;;;;;;;;5049994;28;20044;-62
2022/03/05 06:49:58;;;;;;;44.38;26.40;;;;;;;;;;5052622;28;20006;-62
2022/03/05 06:52:23;;;;;;;41.38;21.92;;;;;;;;;;5047406;28;20021;-62
2022/03/05 06:54:49;;;;;;;43.40;22.08;;;;;;;;;;5033920;28;20014;-61
2022/03/05 06:57:14;;;;;;;46.17;25.38;;;;;;;;;;5032393;28;20799;-62
2022/03/05 06:59:39;;;;;;;49.75;24.23;;;;;;;;;;5034637;28;20025;-61
2022/03/05 07:02:05;;;;;;;51.53;27.20;;;;;;;;;;5033399;28;20431;-62
2022/03/05 07:04:30;;;;;;;56.42;30.27;;;;;;;;;;5033331;28;20067;-61
2022/03/05 07:06:55;;;;;;;47.83;25.20;;;;;;;;;;5047144;28;20029;-62
2022/03/05 07:09:20;;;;;;;51.53;27.27;;;;;;;;;;5047217;28;20064;-62
2022/03/05 07:11:45;;;;;;;44.63;26.90;;;;;;;;;;5053009;28;20477;-62
2022/03/05 07:14:10;;;;;;;45.50;26.70;;;;;;;;;;5041856;28;20455;-62
2022/03/05 07:16:36;;;;;;;50.13;26.48;;;;;;;;;;5044188;28;20021;-62
2022/03/05 07:19:02;;;;;;;55.20;26.05;;;;;;;;;;5046892;28;20029;-62
2022/03/05 07:21:27;;;;;;;49.47;24.65;;;;;;;;;;5033712;28;20495;-62
2022/03/05 07:23:52;;;;;;;39.33;25.17;;;;;;;;;;5030278;28;20055;-62
2022/03/05 07:26:18;;;;;;;43.22;23.13;;;;;;;;;;5037092;28;20459;-62
2022/03/05 07:28:46;;;;;;;46.33;23.15;;;;;;;;;;5037088;28;20037;-62
2022/03/05 07:31:11;;;;;;;50.23;26.30;;;;;;;;;;5037073;28;20025;-62
2022/03/05 07:33:36;;;;;;;43.10;26.70;;;;;;;;;;5037162;28;20490;-62
2022/03/05 07:36:05;;;;;;;47.00;27.05;;;;;;;;;;5046823;28;20032;-62
2022/03/05 07:38:30;;;;;;;44.60;29.02;;;;;;;;;;5050737;28;20056;-63
2022/03/05 07:40:56;;;;;;;45.97;25.45;;;;;;;;;;5037119;28;20475;-60
2022/03/05 07:43:21;;;;;;;50.13;26.77;;;;;;;;;;5050959;28;20041;-60
2022/03/05 07:45:46;;;;;;;49.60;26.90;;;;;;;;;;5036475;28;20456;-60
2022/03/05 07:48:11;;;;;;;55.25;29.55;;;;;;;;;;5029416;28;20034;-60
2022/03/05 07:50:37;;;;;;;41.57;24.73;;;;;;;;;;5033303;28;20045;-60
2022/03/05 07:53:02;;;;;;;50.55;27.60;;;;;;;;;;5030623;28;20087;-60
2022/03/05 07:55:27;;;;;;;53.63;27.48;;;;;;;;;;5042349;28;20017;-60
2022/03/05 07:57:52;;;;;;;44.78;25.50;;;;;;;;;;5030664;28;20049;-59
2022/03/05 08:00:17;;;;;;;53.63;32.00;;;;;;;;;;5049417;28;20017;-60
2022/03/05 08:02:42;;;;;;;49.92;28.48;;;;;;;;;;5049936;28;20056;-60
2022/03/05 08:05:08;;;;;;;49.47;28.83;;;;;;;;;;5032199;28;20022;-61
2022/03/05 08:07:33;;;;;;;70.93;35.35;;;;;;;;;;5050276;28;20029;-60
2022/03/05 08:09:59;;;;;;;59.65;33.10;;;;;;;;;;5037571;28;20025;-60
2022/03/05 08:12:24;;;;;;;54.05;30.55;;;;;;;;;;5030682;28;20076;-60
2022/03/05 08:14:49;;;;;;;50.03;29.13;;;;;;;;;;5031990;28;20495;-60
2022/03/05 08:17:14;;;;;;;53.67;31.10;;;;;;;;;;5046854;28;20459;-60
2022/03/05 08:19:40;;;;;;;53.13;28.77;;;;;;;;;;5050248;28;20017;-60
2022/03/05 08:22:05;;;;;;;47.08;26.05;;;;;;;;;;5049536;28;20116;-60
2022/03/05 08:24:30;;;;;;;41.97;24.05;;;;;;;;;;5051062;28;20060;-59
2022/03/05 08:26:56;;;;;;;45.47;26.27;;;;;;;;;;5043492;28;20037;-60
2022/03/05 08:29:21;;;;;;;41.78;26.60;;;;;;;;;;5051749;28;20028;-58
2022/03/05 08:31:46;;;;;;;46.55;24.38;;;;;;;;;;5032815;28;20056;-58
2022/03/05 08:34:11;;;;;;;34.20;22.10;;;;;;;;;;5033331;28;20102;-58
2022/03/05 08:36:36;;;;;;;41.65;23.48;;;;;;;;;;5036648;28;20065;-58
2022/03/05 08:39:02;;;;;;;34.57;22.63;;;;;;;;;;5048152;28;20183;-58
2022/03/05 08:41:27;;;;;;;41.17;25.30;;;;;;;;;;5052245;28;20040;-59
2022/03/05 08:43:52;;;;;;;34.78;23.70;;;;;;;;;;5055584;28;20021;-58
2022/03/05 08:46:18;;;;;;;35.03;24.27;;;;;;;;;;5047704;28;20477;-59
2022/03/05 08:48:43;;;;;;;36.47;24.20;;;;;;;;;;5048809;28;20036;-59
2022/03/05 08:51:09;;;;;;;35.55;23.95;;;;;;;;;;5050685;28;20017;-58
2022/03/05 08:53:34;;;;;;;39.25;23.38;;;;;;;;;;5049351;28;20036;-58
2022/03/05 08:55:59;;;;;;;32.33;21.17;;;;;;;;;;5050116;28;20019;-58
2022/03/05 08:58:24;;;;;;;38.47;24.37;;;;;;;;;;5049439;28;20424;-58
2022/03/05 09:00:50;;;;;;;38.17;24.80;;;;;;;;;;5051214;28;20961;-58
2022/03/05 09:03:15;;;;;;;39.30;25.05;;;;;;;;;;5042199;28;20432;-59
2022/03/05 09:05:41;;;;;;;36.47;25.30;;;;;;;;;;5050242;28;20041;-58
2022/03/05 09:08:06;;;;;;;37.92;24.33;;;;;;;;;;5049109;28;20483;-58
2022/03/05 09:10:31;;;;;;;37.60;22.73;;;;;;;;;;5050702;28;20036;-58
2022/03/05 09:12:57;;;;;;;45.40;25.07;;;;;;;;;;5048865;28;20511;-58
2022/03/05 09:15:22;;;;;;;40.28;26.50;;;;;;;;;;5048856;28;20949;-58
2022/03/05 09:17:47;;;;;;;37.30;26.65;;;;;;;;;;5030230;28;20528;-58
2022/03/05 09:20:12;;;;;;;38.70;27.50;;;;;;;;;;5030560;28;20366;-58
2022/03/05 09:22:38;;;;;;;38.45;26.45;;;;;;;;;;5047821;28;20045;-58
2022/03/05 09:25:03;;;;;;;36.60;24.53;;;;;;;;;;5050165;28;20082;-58
2022/03/05 09:27:28;;;;;;;39.03;26.42;;;;;;;;;;5036819;28;20482;-58
2022/03/05 09:29:54;;;;;;;41.15;24.75;;;;;;;;;;5030004;28;20025;-58
2022/03/05 09:32:19;;;;;;;39.07;26.87;;;;;;;;;;5044228;28;20044;-58
2022/03/05 09:34:44;;;;;;;37.77;24.63;;;;;;;;;;5049971;28;20120;-58
2022/03/05 09:37:09;;;;;;;40.30;25.35;;;;;;;;;;5032263;28;20107;-58
2022/03/05 09:39:36;;;;;;;45.60;27.70;;;;;;;;;;5030543;28;20053;-58
2022/03/05 09:42:02;;;;;;;44.13;28.90;;;;;;;;;;5030010;28;20467;-57
2022/03/05 09:44:27;;;;;;;47.55;27.83;;;;;;;;;;5034716;28;20074;-57
2022/03/05 09:46:53;;;;;;;41.85;25.42;;;;;;;;;;5048928;28;20041;-58
2022/03/05 09:49:18;;;;;;;44.03;28.80;;;;;;;;;;5050195;28;20028;-58
2022/03/05 09:51:44;;;;;;;39.47;24.17;;;;;;;;;;5041963;28;20049;-58
2022/03/05 09:54:09;;;;;;;37.33;23.17;;;;;;;;;;5029989;28;20033;-58
2022/03/05 09:56:34;;;;;;;38.38;24.10;;;;;;;;;;5029019;28;20104;-58
2022/03/05 09:58:59;;;;;;;38.47;24.38;;;;;;;;;;5046819;28;20017;-58
2022/03/05 10:01:24;;;;;;;41.22;26.58;;;;;;;;;;5039995;28;20021;-58
2022/03/05 10:03:51;;;;;;;37.97;24.60;;;;;;;;;;5030713;28;20435;-59
2022/03/05 10:06:21;;;;;;;36.50;25.02;;;;;;;;;;5028993;28;20036;-58
2022/03/05 10:08:47;;;;;;;37.08;24.90;;;;;;;;;;5032845;28;20021;-58
2022/03/05 10:11:12;;;;;;;36.95;24.63;;;;;;;;;;5043308;28;20017;-58
2022/03/05 10:13:38;;;;;;;47.55;25.27;;;;;;;;;;5037468;28;20033;-58
2022/03/05 10:16:05;;;;;;;33.85;23.17;;;;;;;;;;5043963;28;20682;-58
2022/03/05 10:18:34;;;;;;;38.13;24.38;;;;;;;;;;5028591;28;20058;-58
2022/03/05 10:21:06;;;;;;;32.55;21.63;;;;;;;;;;5034436;28;20025;-57
2022/03/05 10:23:36;;;;;;;39.92;25.70;;;;;;;;;;5048091;28;20103;-57
2022/03/05 10:26:03;;;;;;;34.88;22.58;;;;;;;;;;5045079;28;20060;-58
2022/03/05 10:28:29;;;;;;;41.00;24.23;;;;;;;;;;5028828;28;20121;-57
2022/03/05 10:30:58;;;;;;;39.15;23.85;;;;;;;;;;5030778;28;20100;-57
2022/03/05 10:33:42;;;;;;;36.42;24.70;;;;;;;;;;5028688;28;20429;-57
2022/03/05 10:36:16;;;;;;;30.95;21.23;;;;;;;;;;5030176;28;20416;-59
2022/03/05 10:38:41;;;;;;;36.63;23.95;;;;;;;;;;5047713;28;20037;-59
2022/03/05 10:41:07;;;;;;;34.25;23.30;;;;;;;;;;5044149;28;20033;-59
2022/03/05 10:43:32;;;;;;;34.72;23.95;;;;;;;;;;5030463;28;20132;-59
2022/03/05 10:46:00;;;;;;;35.30;24.93;;;;;;;;;;5039057;28;20021;-57
2022/03/05 10:48:26;;;;;;;33.33;23.80;;;;;;;;;;5052040;28;20095;-59
2022/03/05 10:50:56;;;;;;;33.97;24.00;;;;;;;;;;5046269;28;20020;-59
2022/03/05 10:53:34;;;;;;;33.50;23.85;;;;;;;;;;5031824;28;20064;-59
2022/03/05 10:56:18;;;;;;;31.85;23.65;;;;;;;;;;5033605;28;20014;-59
2022/03/05 10:58:43;;;;;;;39.67;26.00;;;;;;;;;;5031885;28;20495;-59
2022/03/05 11:01:09;;;;;;;33.03;24.55;;;;;;;;;;5035265;28;20100;-59
2022/03/05 11:03:34;;;;;;;33.85;22.45;;;;;;;;;;5031788;28;20404;-59
2022/03/05 11:05:59;;;;;;;37.93;27.60;;;;;;;;;;5042450;28;20075;-56
2022/03/05 11:08:25;;;;;;;35.33;26.67;;;;;;;;;;5044186;28;20368;-59
2022/03/05 11:10:51;;;;;;;41.28;25.02;;;;;;;;;;5036052;28;20473;-60
2022/03/05 11:13:16;;;;;;;33.05;22.13;;;;;;;;;;5031410;28;20030;-59
2022/03/05 11:15:42;;;;;;;40.17;27.80;;;;;;;;;;5032113;28;20021;-59
2022/03/05 11:18:09;;;;;;;35.65;24.48;;;;;;;;;;5031386;28;20116;-59
2022/03/05 11:20:34;;;;;;;34.20;26.05;;;;;;;;;;5037310;28;20024;-59
2022/03/05 11:22:59;;;;;;;35.70;25.35;;;;;;;;;;5050879;28;20033;-58
2022/03/05 11:25:25;;;;;;;36.33;26.40;;;;;;;;;;5052685;28;20484;-59
2022/03/05 11:27:58;;;;;;;33.85;25.00;;;;;;;;;;5043757;28;20041;-59
2022/03/05 11:30:24;;;;;;;39.42;24.42;;;;;;;;;;5036798;28;20385;-59
2022/03/05 11:32:49;;;;;;;36.13;23.52;;;;;;;;;;5038039;28;20140;-59
2022/03/05 11:35:19;;;;;;;39.50;27.40;;;;;;;;;;5036009;28;20040;-59
2022/03/05 11:37:44;;;;;;;47.72;30.20;;;;;;;;;;5041934;28;20044;-59
2022/03/05 11:40:29;;;;;;;33.13;22.15;;;;;;;;;;5035334;28;20499;-60
2022/03/05 11:43:13;;;;;;;39.38;25.95;;;;;;;;;;5031447;28;20045;-59
2022/03/05 11:45:45;;;;;;;37.72;25.08;;;;;;;;;;5033396;28;20025;-59
2022/03/05 11:48:23;;;;;;;40.78;26.50;;;;;;;;;;5049513;28;20044;-59
2022/03/05 11:50:49;;;;;;;40.13;25.33;;;;;;;;;;5043513;28;20029;-59
2022/03/05 11:53:14;;;;;;;40.20;27.25;;;;;;;;;;5030022;28;20807;-59
2022/03/05 11:55:42;;;;;;;41.75;27.35;;;;;;;;;;5037495;28;20025;-58
2022/03/05 11:58:07;;;;;;;36.53;22.67;;;;;;;;;;5049044;28;20033;-59
2022/03/05 12:00:33;;;;;;;38.60;23.07;;;;;;;;;;5039868;28;20027;-59
2022/03/05 12:02:58;;;;;;;40.20;23.75;;;;;;;;;;5050430;28;20107;-59
2022/03/05 12:05:47;;;;;;;50.60;24.63;;;;;;;;;;5052612;28;20021;-59
2022/03/05 12:08:32;;;;;;;37.45;24.25;;;;;;;;;;5050341;28;20033;-59
2022/03/05 12:11:08;;;;;;;40.47;24.25;;;;;;;;;;5038909;28;20029;-59
2022/03/05 12:13:38;;;;;;;37.40;23.58;;;;;;;;;;5030754;28;20033;-59
2022/03/05 12:16:12;;;;;;;33.13;22.98;;;;;;;;;;5032089;28;20028;-59
2022/03/05 12:18:39;;;;;;;39.75;23.95;;;;;;;;;;5046141;28;20119;-59
2022/03/05 12:21:04;;;;;;;40.22;25.90;;;;;;;;;;5038662;28;20026;-59
2022/03/05 12:23:30;;;;;;;39.72;26.40;;;;;;;;;;5030613;28;20068;-59
2022/03/05 12:25:57;;;;;;;36.17;20.15;;;;;;;;;;5032837;28;20543;-59
2022/03/05 12:28:23;;;;;;;38.97;28.30;;;;;;;;;;5030403;28;20037;-60
2022/03/05 12:30:51;;;;;;;35.95;24.45;;;;;;;;;;5033561;28;20481;-59
2022/03/05 12:33:17;;;;;;;37.78;23.85;;;;;;;;;;5035588;28;20425;-59
2022/03/05 12:35:46;;;;;;;30.20;20.30;;;;;;;;;;5044604;28;20009;-59
2022/03/05 12:38:16;;;;;;;38.25;26.27;;;;;;;;;;5060383;28;20061;-59
2022/03/05 12:40:42;;;;;;;38.63;22.65;;;;;;;;;;5051365;28;20020;-59
2022/03/05 12:43:07;;;;;;;38.58;23.92;;;;;;;;;;5048557;28;20033;-59
2022/03/05 12:45:37;;;;;;;37.70;25.25;;;;;;;;;;5031592;28;20022;-58
2022/03/05 12:48:16;;;;;;;37.22;26.55;;;;;;;;;;5029621;28;20034;-59
2022/03/05 12:50:46;;;;;;;40.13;27.13;;;;;;;;;;5043376;28;20131;-59
2022/03/05 12:53:11;;;;;;;51.05;33.30;;;;;;;;;;5049240;28;20033;-59
2022/03/05 12:55:39;;;;;;;101.43;51.97;;;;;;;;;;5051222;28;20028;-59
2022/03/05 12:58:05;;;;;;;31.65;20.27;;;;;;;;;;5048944;28;20440;-59
2022/03/05 13:00:30;;;;;;;34.20;20.00;;;;;;;;;;5050352;28;20158;-59
2022/03/05 13:02:56;;;;;;;36.03;22.73;;;;;;;;;;5041486;28;20124;-59
2022/03/05 13:05:21;;;;;;;260.67;143.73;;;;;;;;;;5030646;28;20461;-59
2022/03/05 13:07:46;;;;;;;64.47;36.23;;;;;;;;;;5029756;28;20095;-59
2022/03/05 13:10:11;;;;;;;33.20;23.43;;;;;;;;;;5041532;28;20500;-59
2022/03/05 13:12:37;;;;;;;35.08;24.48;;;;;;;;;;5033430;28;21030;-63
2022/03/05 13:15:03;;;;;;;42.72;30.35;;;;;;;;;;5045828;28;20380;-59
2022/03/05 13:17:28;;;;;;;34.00;20.67;;;;;;;;;;5039075;28;20402;-60
2022/03/05 13:20:19;;;;;;;35.40;21.42;;;;;;;;;;5043664;28;20056;-59
2022/03/05 13:22:46;;;;;;;39.15;25.83;;;;;;;;;;5041764;28;20048;-59
2022/03/05 13:25:12;;;;;;;35.58;21.60;;;;;;;;;;5033254;28;20046;-60
2022/03/05 13:27:37;;;;;;;31.10;22.58;;;;;;;;;;5034582;28;20115;-60
2022/03/05 13:30:06;;;;;;;35.20;23.25;;;;;;;;;;5044882;28;20104;-60
2022/03/05 13:32:41;;;;;;;32.58;21.45;;;;;;;;;;5047182;28;20045;-60
2022/03/05 13:35:06;;;;;;;33.28;22.83;;;;;;;;;;5050797;28;20062;-59
2022/03/05 13:37:35;;;;;;;39.85;26.00;;;;;;;;;;5052082;28;20123;-59
2022/03/05 13:40:01;;;;;;;36.15;22.25;;;;;;;;;;5056468;28;20095;-58
2022/03/05 13:42:31;;;;;;;34.20;22.80;;;;;;;;;;5041097;28;20489;-58
2022/03/05 13:44:58;;;;;;;35.47;22.45;;;;;;;;;;5036221;28;20067;-59
2022/03/05 13:47:24;;;;;;;30.60;20.25;;;;;;;;;;5049532;28;20122;-58
2022/03/05 13:49:50;;;;;;;30.77;22.50;;;;;;;;;;5038677;28;20022;-59
2022/03/05 13:52:17;;;;;;;31.33;21.70;;;;;;;;;;5029090;28;20061;-58
2022/03/05 13:54:50;;;;;;;28.77;20.05;;;;;;;;;;5032005;28;20022;-59
2022/03/05 13:57:26;;;;;;;32.40;20.08;;;;;;;;;;5048890;28;20049;-59
2022/03/05 13:59:51;;;;;;;29.65;21.80;;;;;;;;;;5050878;28;20111;-59
2022/03/05 14:02:17;;;;;;;30.20;20.93;;;;;;;;;;5049182;28;20053;-59
2022/03/05 14:04:55;;;;;;;30.02;20.50;;;;;;;;;;5050341;28;20017;-59
2022/03/05 14:07:20;;;;;;;33.90;23.05;;;;;;;;;;5049365;28;20068;-58
2022/03/05 14:09:45;;;;;;;30.23;21.10;;;;;;;;;;5034703;28;20029;-58
2022/03/05 14:12:12;;;;;;;33.95;21.77;;;;;;;;;;5028487;28;20502;-59